QFA450 YMML-YSSY
Flight info
| Callsign | QFA450 |
|---|---|
| Flight time | 1h 6m |
| Altitude | 39000 |
| Route | DOSEL Y59 RIVET |
| Aircraft | B738/M-SDE2E3FGHIRWXY/LB1 |
Departure
| Time | 2026-04-22 03:42 |
|---|---|
| Airport | Melbourne Airport (YMML) |
Arrival
| Time | 2026-04-22 04:48 |
|---|---|
| Airport | Sydney Kingsford Smith International Airport (YSSY) |
| Time | Latitude | Longitude | Altitude | Speed | Heading |
|---|---|---|---|---|---|
| 2026-04-22 03:22 | -37.66759 | 144.84913 | 399 ft | 0 kts | 82° |
| 2026-04-22 03:32 | -37.66759 | 144.84909 | 399 ft | 3 kts | 82° |
| 2026-04-22 03:32 | -37.66763 | 144.84877 | 394 ft | 4 kts | 81° |
| 2026-04-22 03:32 | -37.66768 | 144.84855 | 395 ft | 2 kts | 52° |
| 2026-04-22 03:33 | -37.66778 | 144.84844 | 393 ft | 2 kts | 18° |
| 2026-04-22 03:33 | -37.66790 | 144.84841 | 396 ft | 2 kts | 359° |
| 2026-04-22 03:33 | -37.66797 | 144.84842 | 396 ft | 0 kts | 353° |
| 2026-04-22 03:36 | -37.66793 | 144.84841 | 396 ft | 2 kts | 353° |
| 2026-04-22 03:36 | -37.66775 | 144.84838 | 397 ft | 5 kts | 352° |
| 2026-04-22 03:36 | -37.66718 | 144.84818 | 399 ft | 11 kts | 342° |
| 2026-04-22 03:36 | -37.66646 | 144.84783 | 399 ft | 12 kts | 309° |
| 2026-04-22 03:37 | -37.66646 | 144.84674 | 400 ft | 14 kts | 262° |
| 2026-04-22 03:37 | -37.66660 | 144.84553 | 398 ft | 14 kts | 261° |
| 2026-04-22 03:37 | -37.66674 | 144.84430 | 397 ft | 14 kts | 262° |
| 2026-04-22 03:37 | -37.66689 | 144.84308 | 394 ft | 14 kts | 261° |
| 2026-04-22 03:38 | -37.66702 | 144.84188 | 395 ft | 13 kts | 262° |
| 2026-04-22 03:38 | -37.66717 | 144.84072 | 394 ft | 13 kts | 261° |
| 2026-04-22 03:38 | -37.66764 | 144.83985 | 392 ft | 14 kts | 193° |
| 2026-04-22 03:38 | -37.66887 | 144.84002 | 388 ft | 22 kts | 172° |
| 2026-04-22 03:39 | -37.67062 | 144.84034 | 382 ft | 28 kts | 171° |
| 2026-04-22 03:39 | -37.67258 | 144.84071 | 377 ft | 28 kts | 171° |
| 2026-04-22 03:39 | -37.67443 | 144.84105 | 372 ft | 26 kts | 172° |
| 2026-04-22 03:39 | -37.67612 | 144.84137 | 368 ft | 18 kts | 172° |
| 2026-04-22 03:40 | -37.67739 | 144.84160 | 368 ft | 16 kts | 171° |
| 2026-04-22 03:40 | -37.67844 | 144.84166 | 359 ft | 13 kts | 207° |
| 2026-04-22 03:40 | -37.67884 | 144.84058 | 359 ft | 15 kts | 259° |
| 2026-04-22 03:40 | -37.67877 | 144.83969 | 359 ft | 6 kts | 321° |
| 2026-04-22 03:41 | -37.67834 | 144.83958 | 359 ft | 10 kts | 352° |
| 2026-04-22 03:41 | -37.67482 | 144.83894 | 366 ft | 95 kts | 351° |
| 2026-04-22 03:41 | -37.66563 | 144.83721 | 449 ft | 166 kts | 354° |
| 2026-04-22 03:41 | -37.65281 | 144.83482 | 1004 ft | 202 kts | 353° |
| 2026-04-22 03:42 | -37.63884 | 144.83214 | 2160 ft | 196 kts | 349° |
| 2026-04-22 03:42 | -37.62556 | 144.82953 | 3135 ft | 201 kts | 348° |
| 2026-04-22 03:42 | -37.61066 | 144.82655 | 3433 ft | 234 kts | 348° |
| 2026-04-22 03:42 | -37.59352 | 144.82424 | 3990 ft | 258 kts | 3° |
| 2026-04-22 03:43 | -37.57630 | 144.83134 | 5010 ft | 265 kts | 24° |
| 2026-04-22 03:43 | -37.55955 | 144.84155 | 5986 ft | 269 kts | 26° |
| 2026-04-22 03:43 | -37.54264 | 144.85202 | 6981 ft | 271 kts | 27° |
| 2026-04-22 03:43 | -37.52558 | 144.86257 | 7902 ft | 275 kts | 27° |
| 2026-04-22 03:44 | -37.50819 | 144.87323 | 8843 ft | 279 kts | 26° |
| 2026-04-22 03:44 | -37.49083 | 144.88381 | 9754 ft | 283 kts | 26° |
| 2026-04-22 03:44 | -37.47291 | 144.89469 | 10543 ft | 293 kts | 26° |
| 2026-04-22 03:44 | -37.45361 | 144.90638 | 10783 ft | 320 kts | 25° |
| 2026-04-22 03:45 | -37.43416 | 144.92197 | 11082 ft | 342 kts | 44° |
| 2026-04-22 03:45 | -37.41916 | 144.94563 | 11791 ft | 349 kts | 53° |
| 2026-04-22 03:45 | -37.40506 | 144.97069 | 12607 ft | 353 kts | 54° |
| 2026-04-22 03:45 | -37.39091 | 144.99626 | 13418 ft | 357 kts | 54° |
| 2026-04-22 03:46 | -37.37679 | 145.02175 | 14176 ft | 362 kts | 54° |
| 2026-04-22 03:46 | -37.36225 | 145.04783 | 14860 ft | 367 kts | 54° |
| 2026-04-22 03:46 | -37.34744 | 145.07420 | 15559 ft | 372 kts | 54° |
| 2026-04-22 03:46 | -37.33233 | 145.10099 | 16275 ft | 376 kts | 53° |
| 2026-04-22 03:47 | -37.31708 | 145.12793 | 16951 ft | 381 kts | 53° |
| 2026-04-22 03:47 | -37.30158 | 145.15524 | 17603 ft | 386 kts | 53° |
| 2026-04-22 03:47 | -37.28592 | 145.18282 | 18289 ft | 390 kts | 53° |
| 2026-04-22 03:47 | -37.27022 | 145.21044 | 18916 ft | 394 kts | 53° |
| 2026-04-22 03:48 | -37.25421 | 145.23857 | 19533 ft | 397 kts | 53° |
| 2026-04-22 03:48 | -37.23811 | 145.26685 | 20161 ft | 400 kts | 53° |
| 2026-04-22 03:48 | -37.22188 | 145.29533 | 20775 ft | 403 kts | 53° |
| 2026-04-22 03:48 | -37.20551 | 145.32405 | 21381 ft | 406 kts | 53° |
| 2026-04-22 03:49 | -37.18896 | 145.35306 | 21937 ft | 410 kts | 53° |
| 2026-04-22 03:49 | -37.17234 | 145.38211 | 22521 ft | 412 kts | 53° |
| 2026-04-22 03:49 | -37.16120 | 145.40159 | 22898 ft | 414 kts | 53° |
| 2026-04-22 03:49 | -37.14433 | 145.43105 | 23454 ft | 418 kts | 53° |
| 2026-04-22 03:50 | -37.12731 | 145.46072 | 23975 ft | 421 kts | 53° |
| 2026-04-22 03:50 | -37.11014 | 145.49062 | 24388 ft | 425 kts | 53° |
| 2026-04-22 03:50 | -37.09278 | 145.52085 | 24789 ft | 429 kts | 53° |
| 2026-04-22 03:50 | -37.07528 | 145.55130 | 25213 ft | 432 kts | 53° |
| 2026-04-22 03:51 | -37.05765 | 145.58195 | 25622 ft | 436 kts | 53° |
| 2026-04-22 03:51 | -37.03986 | 145.61287 | 26013 ft | 439 kts | 53° |
| 2026-04-22 03:51 | -37.02192 | 145.64401 | 26420 ft | 442 kts | 53° |
| 2026-04-22 03:51 | -37.00389 | 145.67528 | 26811 ft | 445 kts | 53° |
| 2026-04-22 03:52 | -36.98562 | 145.70693 | 27190 ft | 449 kts | 53° |
| 2026-04-22 03:52 | -36.96725 | 145.73874 | 27564 ft | 452 kts | 53° |
| 2026-04-22 03:52 | -36.94876 | 145.77072 | 27924 ft | 455 kts | 53° |
| 2026-04-22 03:52 | -36.93012 | 145.80292 | 28284 ft | 458 kts | 53° |
| 2026-04-22 03:53 | -36.91131 | 145.83538 | 28636 ft | 461 kts | 53° |
| 2026-04-22 03:53 | -36.89244 | 145.86792 | 28973 ft | 464 kts | 53° |
| 2026-04-22 03:53 | -36.87342 | 145.90070 | 29299 ft | 468 kts | 53° |
| 2026-04-22 03:53 | -36.85444 | 145.93336 | 29614 ft | 471 kts | 53° |
| 2026-04-22 03:54 | -36.83511 | 145.96659 | 29930 ft | 474 kts | 52° |
| 2026-04-22 03:54 | -36.81567 | 145.99998 | 30225 ft | 477 kts | 52° |
| 2026-04-22 03:54 | -36.79615 | 146.03349 | 30509 ft | 479 kts | 52° |
| 2026-04-22 03:54 | -36.77647 | 146.06723 | 30791 ft | 481 kts | 52° |
| 2026-04-22 03:55 | -36.75676 | 146.10098 | 31106 ft | 481 kts | 52° |
| 2026-04-22 03:55 | -36.73706 | 146.13470 | 31482 ft | 480 kts | 52° |
| 2026-04-22 03:55 | -36.71742 | 146.16828 | 31890 ft | 479 kts | 52° |
| 2026-04-22 03:55 | -36.69782 | 146.20174 | 32276 ft | 477 kts | 52° |
| 2026-04-22 03:56 | -36.67819 | 146.23524 | 32624 ft | 477 kts | 52° |
| 2026-04-22 03:56 | -36.65863 | 146.26857 | 32961 ft | 476 kts | 52° |
| 2026-04-22 03:56 | -36.63907 | 146.30187 | 33326 ft | 476 kts | 52° |
| 2026-04-22 03:56 | -36.61982 | 146.33461 | 33680 ft | 475 kts | 52° |
| 2026-04-22 03:57 | -36.60035 | 146.36770 | 34030 ft | 474 kts | 52° |
| 2026-04-22 03:57 | -36.58084 | 146.40081 | 34346 ft | 474 kts | 52° |
| 2026-04-22 03:57 | -36.56135 | 146.43387 | 34612 ft | 474 kts | 52° |
| 2026-04-22 03:57 | -36.54179 | 146.46701 | 34861 ft | 474 kts | 52° |
| 2026-04-22 03:58 | -36.52225 | 146.50008 | 35104 ft | 475 kts | 52° |
| 2026-04-22 03:58 | -36.50269 | 146.53314 | 35376 ft | 474 kts | 52° |
| 2026-04-22 03:58 | -36.48310 | 146.56624 | 35644 ft | 474 kts | 52° |
| 2026-04-22 03:58 | -36.46358 | 146.59918 | 35887 ft | 474 kts | 52° |
| 2026-04-22 03:59 | -36.44397 | 146.63224 | 36105 ft | 475 kts | 52° |
| 2026-04-22 03:59 | -36.42458 | 146.66491 | 36369 ft | 474 kts | 52° |
| 2026-04-22 03:59 | -36.40471 | 146.69836 | 36649 ft | 474 kts | 52° |
| 2026-04-22 03:59 | -36.38537 | 146.73087 | 36892 ft | 474 kts | 52° |
| 2026-04-22 04:00 | -36.36574 | 146.76383 | 37118 ft | 474 kts | 52° |
| 2026-04-22 04:00 | -36.34614 | 146.79672 | 37377 ft | 474 kts | 52° |
| 2026-04-22 04:00 | -36.32653 | 146.82960 | 37628 ft | 473 kts | 52° |
| 2026-04-22 04:00 | -36.30691 | 146.86247 | 37857 ft | 473 kts | 52° |
| 2026-04-22 04:01 | -36.28733 | 146.89523 | 38084 ft | 473 kts | 52° |
| 2026-04-22 04:01 | -36.26773 | 146.92800 | 38299 ft | 473 kts | 52° |
| 2026-04-22 04:01 | -36.24835 | 146.96036 | 38533 ft | 473 kts | 52° |
| 2026-04-22 04:01 | -36.22879 | 146.99302 | 38759 ft | 472 kts | 52° |
| 2026-04-22 04:02 | -36.20915 | 147.02577 | 38961 ft | 472 kts | 52° |
| 2026-04-22 04:02 | -36.18959 | 147.05834 | 39139 ft | 472 kts | 52° |
| 2026-04-22 04:02 | -36.17000 | 147.09093 | 39278 ft | 472 kts | 52° |
| 2026-04-22 04:02 | -36.15032 | 147.12364 | 39328 ft | 474 kts | 52° |
| 2026-04-22 04:03 | -36.11061 | 147.18953 | 39335 ft | 476 kts | 52° |
| 2026-04-22 04:03 | -36.07133 | 147.25464 | 39333 ft | 474 kts | 52° |
| 2026-04-22 04:04 | -36.03190 | 147.31989 | 39330 ft | 473 kts | 52° |
| 2026-04-22 04:04 | -35.99241 | 147.38511 | 39335 ft | 475 kts | 52° |
| 2026-04-22 04:05 | -35.95267 | 147.45061 | 39327 ft | 477 kts | 52° |
| 2026-04-22 04:05 | -35.91297 | 147.51593 | 39328 ft | 479 kts | 52° |
| 2026-04-22 04:06 | -35.87293 | 147.58170 | 39322 ft | 480 kts | 52° |
| 2026-04-22 04:06 | -35.83260 | 147.64782 | 39318 ft | 481 kts | 52° |
| 2026-04-22 04:07 | -35.79236 | 147.71357 | 39319 ft | 481 kts | 52° |
| 2026-04-22 04:07 | -35.75230 | 147.77891 | 39319 ft | 480 kts | 52° |
| 2026-04-22 04:08 | -35.71202 | 147.84451 | 39317 ft | 480 kts | 52° |
| 2026-04-22 04:08 | -35.67176 | 147.90999 | 39317 ft | 479 kts | 52° |
| 2026-04-22 04:09 | -35.63159 | 147.97518 | 39317 ft | 478 kts | 52° |
| 2026-04-22 04:09 | -35.59131 | 148.04043 | 39318 ft | 478 kts | 52° |
| 2026-04-22 04:10 | -35.55129 | 148.10515 | 39315 ft | 478 kts | 52° |
| 2026-04-22 04:10 | -35.51097 | 148.17023 | 39320 ft | 478 kts | 52° |
| 2026-04-22 04:11 | -35.47055 | 148.23537 | 39320 ft | 479 kts | 52° |
| 2026-04-22 04:11 | -35.43010 | 148.30043 | 39322 ft | 480 kts | 52° |
| 2026-04-22 04:12 | -35.38975 | 148.36506 | 39314 ft | 481 kts | 52° |
| 2026-04-22 04:12 | -35.34899 | 148.43018 | 39326 ft | 482 kts | 52° |
| 2026-04-22 04:13 | -35.30810 | 148.49540 | 39320 ft | 483 kts | 52° |
| 2026-04-22 04:13 | -35.26710 | 148.56074 | 39321 ft | 484 kts | 52° |
| 2026-04-22 04:14 | -35.22592 | 148.62623 | 39317 ft | 485 kts | 52° |
| 2026-04-22 04:14 | -35.18485 | 148.69142 | 39319 ft | 486 kts | 52° |
| 2026-04-22 04:15 | -35.14343 | 148.75704 | 39321 ft | 487 kts | 52° |
| 2026-04-22 04:15 | -35.10192 | 148.82269 | 39320 ft | 488 kts | 52° |
| 2026-04-22 04:16 | -35.03961 | 148.92100 | 39327 ft | 488 kts | 52° |
| 2026-04-22 04:17 | -34.99809 | 148.98636 | 38856 ft | 495 kts | 52° |
| 2026-04-22 04:17 | -34.97684 | 149.01976 | 38242 ft | 494 kts | 52° |
| 2026-04-22 04:17 | -34.95581 | 149.05278 | 37653 ft | 492 kts | 52° |
| 2026-04-22 04:17 | -34.93481 | 149.08573 | 37038 ft | 490 kts | 52° |
| 2026-04-22 04:18 | -34.91390 | 149.11850 | 36441 ft | 489 kts | 53° |
| 2026-04-22 04:18 | -34.89302 | 149.15120 | 35808 ft | 489 kts | 53° |
| 2026-04-22 04:18 | -34.87208 | 149.18398 | 35136 ft | 490 kts | 53° |
| 2026-04-22 04:18 | -34.85110 | 149.21677 | 34454 ft | 492 kts | 53° |
| 2026-04-22 04:19 | -34.83027 | 149.24931 | 33657 ft | 494 kts | 53° |
| 2026-04-22 04:19 | -34.80915 | 149.28227 | 32887 ft | 494 kts | 53° |
| 2026-04-22 04:19 | -34.78799 | 149.31528 | 32256 ft | 492 kts | 53° |
| 2026-04-22 04:19 | -34.76706 | 149.34786 | 31741 ft | 487 kts | 53° |
| 2026-04-22 04:20 | -34.74634 | 149.38027 | 31221 ft | 482 kts | 55° |
| 2026-04-22 04:20 | -34.72831 | 149.41416 | 30849 ft | 472 kts | 64° |
| 2026-04-22 04:20 | -34.71302 | 149.44905 | 30410 ft | 466 kts | 65° |
| 2026-04-22 04:20 | -34.69817 | 149.48390 | 29855 ft | 461 kts | 65° |
| 2026-04-22 04:21 | -34.68353 | 149.51832 | 29329 ft | 456 kts | 65° |
| 2026-04-22 04:21 | -34.66898 | 149.55228 | 28802 ft | 451 kts | 65° |
| 2026-04-22 04:21 | -34.65447 | 149.58583 | 28288 ft | 446 kts | 65° |
| 2026-04-22 04:21 | -34.63994 | 149.61919 | 27758 ft | 442 kts | 65° |
| 2026-04-22 04:22 | -34.62573 | 149.65167 | 27255 ft | 438 kts | 65° |
| 2026-04-22 04:22 | -34.61144 | 149.68426 | 26751 ft | 435 kts | 65° |
| 2026-04-22 04:22 | -34.59724 | 149.71661 | 26253 ft | 431 kts | 65° |
| 2026-04-22 04:22 | -34.58319 | 149.74859 | 25757 ft | 428 kts | 65° |
| 2026-04-22 04:23 | -34.56920 | 149.78040 | 25259 ft | 424 kts | 65° |
| 2026-04-22 04:23 | -34.55534 | 149.81190 | 24766 ft | 421 kts | 65° |
| 2026-04-22 04:23 | -34.54178 | 149.84272 | 24287 ft | 418 kts | 65° |
| 2026-04-22 04:23 | -34.52810 | 149.87380 | 23758 ft | 416 kts | 65° |
| 2026-04-22 04:24 | -34.51449 | 149.90465 | 23206 ft | 413 kts | 65° |
| 2026-04-22 04:24 | -34.50099 | 149.93521 | 22694 ft | 409 kts | 65° |
| 2026-04-22 04:24 | -34.48768 | 149.96530 | 22389 ft | 400 kts | 65° |
| 2026-04-22 04:24 | -34.47459 | 149.99484 | 21945 ft | 395 kts | 65° |
| 2026-04-22 04:25 | -34.46168 | 150.02400 | 21476 ft | 391 kts | 65° |
| 2026-04-22 04:25 | -34.44900 | 150.05263 | 21004 ft | 388 kts | 65° |
| 2026-04-22 04:25 | -34.43627 | 150.08137 | 20540 ft | 385 kts | 65° |
| 2026-04-22 04:25 | -34.42361 | 150.10992 | 20074 ft | 383 kts | 65° |
| 2026-04-22 04:26 | -34.41101 | 150.13832 | 19614 ft | 380 kts | 65° |
| 2026-04-22 04:26 | -34.39853 | 150.16641 | 19151 ft | 378 kts | 65° |
| 2026-04-22 04:26 | -34.38610 | 150.19438 | 18688 ft | 376 kts | 65° |
| 2026-04-22 04:26 | -34.37375 | 150.22214 | 18175 ft | 373 kts | 65° |
| 2026-04-22 04:27 | -34.36161 | 150.24940 | 17675 ft | 370 kts | 65° |
| 2026-04-22 04:27 | -34.34928 | 150.27708 | 17194 ft | 367 kts | 65° |
| 2026-04-22 04:27 | -34.33736 | 150.30381 | 16738 ft | 364 kts | 65° |
| 2026-04-22 04:27 | -34.32542 | 150.33059 | 16279 ft | 360 kts | 65° |
| 2026-04-22 04:28 | -34.31359 | 150.35709 | 15850 ft | 356 kts | 65° |
| 2026-04-22 04:28 | -34.30188 | 150.38332 | 15414 ft | 354 kts | 64° |
| 2026-04-22 04:28 | -34.29017 | 150.40946 | 14967 ft | 352 kts | 64° |
| 2026-04-22 04:28 | -34.27857 | 150.43537 | 14533 ft | 349 kts | 64° |
| 2026-04-22 04:29 | -34.26706 | 150.46109 | 14120 ft | 347 kts | 64° |
| 2026-04-22 04:29 | -34.25561 | 150.48664 | 13651 ft | 344 kts | 64° |
| 2026-04-22 04:29 | -34.24424 | 150.51204 | 13190 ft | 342 kts | 64° |
| 2026-04-22 04:29 | -34.23310 | 150.53690 | 12750 ft | 339 kts | 64° |
| 2026-04-22 04:30 | -34.22191 | 150.56188 | 12315 ft | 337 kts | 64° |
| 2026-04-22 04:30 | -34.21079 | 150.58669 | 11881 ft | 334 kts | 64° |
| 2026-04-22 04:30 | -34.19973 | 150.61133 | 11455 ft | 332 kts | 64° |
| 2026-04-22 04:30 | -34.18873 | 150.63579 | 11053 ft | 330 kts | 64° |
| 2026-04-22 04:31 | -34.17791 | 150.65980 | 10791 ft | 323 kts | 64° |
| 2026-04-22 04:31 | -34.16722 | 150.68358 | 10480 ft | 319 kts | 64° |
| 2026-04-22 04:31 | -34.15676 | 150.70681 | 10294 ft | 310 kts | 64° |
| 2026-04-22 04:31 | -34.14660 | 150.72936 | 10141 ft | 301 kts | 64° |
| 2026-04-22 04:32 | -34.13672 | 150.75129 | 9995 ft | 292 kts | 64° |
| 2026-04-22 04:32 | -34.12731 | 150.77217 | 9884 ft | 282 kts | 64° |
| 2026-04-22 04:32 | -34.11784 | 150.79320 | 9475 ft | 284 kts | 64° |
| 2026-04-22 04:32 | -34.10841 | 150.81412 | 9160 ft | 283 kts | 64° |
| 2026-04-22 04:33 | -34.09902 | 150.83492 | 8886 ft | 280 kts | 64° |
| 2026-04-22 04:33 | -34.08981 | 150.85538 | 8664 ft | 276 kts | 64° |
| 2026-04-22 04:33 | -34.08071 | 150.87560 | 8448 ft | 272 kts | 65° |
| 2026-04-22 04:33 | -34.07169 | 150.89562 | 8256 ft | 271 kts | 65° |
| 2026-04-22 04:34 | -34.06277 | 150.91542 | 8055 ft | 273 kts | 65° |
| 2026-04-22 04:34 | -34.05370 | 150.93559 | 7844 ft | 275 kts | 65° |
| 2026-04-22 04:34 | -34.04453 | 150.95593 | 7638 ft | 276 kts | 64° |
| 2026-04-22 04:34 | -34.03532 | 150.97637 | 7420 ft | 276 kts | 64° |
| 2026-04-22 04:35 | -34.02589 | 150.99653 | 7199 ft | 275 kts | 57° |
| 2026-04-22 04:35 | -34.01713 | 151.00765 | 7047 ft | 278 kts | 39° |
| 2026-04-22 04:35 | -33.99320 | 151.01782 | 6789 ft | 278 kts | 0° |
| 2026-04-22 04:35 | -33.97419 | 151.01509 | 6694 ft | 271 kts | 349° |
| 2026-04-22 04:36 | -33.96168 | 151.01212 | 6658 ft | 270 kts | 348° |
| 2026-04-22 04:36 | -33.94330 | 151.00752 | 6640 ft | 272 kts | 348° |
| 2026-04-22 04:36 | -33.92473 | 151.00282 | 6644 ft | 278 kts | 348° |
| 2026-04-22 04:36 | -33.90558 | 150.99793 | 6450 ft | 284 kts | 347° |
| 2026-04-22 04:37 | -33.88624 | 150.99298 | 6247 ft | 283 kts | 347° |
| 2026-04-22 04:37 | -33.86706 | 150.98806 | 5998 ft | 280 kts | 347° |
| 2026-04-22 04:37 | -33.84812 | 150.98320 | 5685 ft | 276 kts | 347° |
| 2026-04-22 04:37 | -33.82954 | 150.97836 | 5383 ft | 269 kts | 347° |
| 2026-04-22 04:38 | -33.81158 | 150.97376 | 5107 ft | 257 kts | 347° |
| 2026-04-22 04:38 | -33.79430 | 150.96937 | 4861 ft | 249 kts | 348° |
| 2026-04-22 04:38 | -33.77752 | 150.96510 | 4588 ft | 243 kts | 348° |
| 2026-04-22 04:38 | -33.76144 | 150.96098 | 4382 ft | 237 kts | 348° |
| 2026-04-22 04:39 | -33.74531 | 150.95676 | 4228 ft | 240 kts | 347° |
| 2026-04-22 04:39 | -33.72865 | 150.95295 | 4029 ft | 245 kts | 358° |
| 2026-04-22 04:39 | -33.71233 | 150.95725 | 3862 ft | 241 kts | 32° |
| 2026-04-22 04:39 | -33.70055 | 150.97070 | 3682 ft | 231 kts | 65° |
| 2026-04-22 04:40 | -33.69552 | 150.98854 | 3542 ft | 223 kts | 81° |
| 2026-04-22 04:40 | -33.69220 | 151.00636 | 3393 ft | 212 kts | 82° |
| 2026-04-22 04:40 | -33.68909 | 151.02356 | 3287 ft | 210 kts | 82° |
| 2026-04-22 04:40 | -33.68618 | 151.04055 | 3186 ft | 204 kts | 88° |
| 2026-04-22 04:41 | -33.68863 | 151.05670 | 3056 ft | 196 kts | 123° |
| 2026-04-22 04:41 | -33.69666 | 151.06940 | 3026 ft | 186 kts | 132° |
| 2026-04-22 04:41 | -33.70478 | 151.08074 | 2985 ft | 179 kts | 133° |
| 2026-04-22 04:41 | -33.71290 | 151.09209 | 2993 ft | 179 kts | 133° |
| 2026-04-22 04:42 | -33.72090 | 151.10357 | 2991 ft | 178 kts | 133° |
| 2026-04-22 04:42 | -33.72926 | 151.11446 | 2968 ft | 175 kts | 147° |
| 2026-04-22 04:42 | -33.74049 | 151.11956 | 2989 ft | 173 kts | 162° |
| 2026-04-22 04:42 | -33.75197 | 151.12412 | 2990 ft | 173 kts | 162° |
| 2026-04-22 04:43 | -33.76310 | 151.12781 | 2970 ft | 159 kts | 165° |
| 2026-04-22 04:43 | -33.77367 | 151.13089 | 2976 ft | 155 kts | 167° |
| 2026-04-22 04:43 | -33.78418 | 151.13377 | 2931 ft | 155 kts | 167° |
| 2026-04-22 04:43 | -33.79481 | 151.13661 | 2725 ft | 156 kts | 167° |
| 2026-04-22 04:44 | -33.80519 | 151.13933 | 2519 ft | 152 kts | 167° |
| 2026-04-22 04:44 | -33.81519 | 151.14194 | 2331 ft | 142 kts | 168° |
| 2026-04-22 04:44 | -33.82429 | 151.14431 | 2161 ft | 124 kts | 168° |
| 2026-04-22 04:44 | -33.83247 | 151.14643 | 2002 ft | 120 kts | 169° |
| 2026-04-22 04:45 | -33.84071 | 151.14857 | 1829 ft | 120 kts | 167° |
| 2026-04-22 04:45 | -33.84875 | 151.15067 | 1685 ft | 119 kts | 169° |
| 2026-04-22 04:45 | -33.85733 | 151.15288 | 1520 ft | 129 kts | 168° |
| 2026-04-22 04:45 | -33.86587 | 151.15511 | 1331 ft | 119 kts | 167° |
| 2026-04-22 04:46 | -33.87382 | 151.15711 | 1190 ft | 119 kts | 168° |
| 2026-04-22 04:46 | -33.88201 | 151.15929 | 1035 ft | 120 kts | 169° |
| 2026-04-22 04:46 | -33.89007 | 151.16139 | 858 ft | 121 kts | 167° |
| 2026-04-22 04:46 | -33.89809 | 151.16347 | 700 ft | 116 kts | 167° |
| 2026-04-22 04:47 | -33.90605 | 151.16554 | 554 ft | 120 kts | 167° |
| 2026-04-22 04:47 | -33.91437 | 151.16771 | 400 ft | 124 kts | 166° |
| 2026-04-22 04:47 | -33.92276 | 151.16989 | 198 ft | 122 kts | 167° |
| 2026-04-22 04:47 | -33.93089 | 151.17196 | 60 ft | 117 kts | 165° |
| 2026-04-22 04:48 | -33.93806 | 151.17385 | 26 ft | 93 kts | 168° |
| 2026-04-22 04:48 | -33.94362 | 151.17530 | 29 ft | 71 kts | 168° |
| 2026-04-22 04:48 | -33.94749 | 151.17630 | 28 ft | 49 kts | 168° |
| 2026-04-22 04:48 | -33.95038 | 151.17705 | 27 ft | 27 kts | 168° |
| 2026-04-22 04:49 | -33.95150 | 151.17782 | 28 ft | 14 kts | 105° |
| 2026-04-22 04:49 | -33.95143 | 151.17865 | 29 ft | 0 kts | 78° |
| 2026-04-22 04:50 | -33.95142 | 151.17869 | 29 ft | 2 kts | 78° |
| 2026-04-22 04:50 | -33.95135 | 151.17910 | 29 ft | 8 kts | 77° |
| 2026-04-22 04:51 | -33.95068 | 151.17935 | 29 ft | 15 kts | 349° |
| 2026-04-22 04:51 | -33.94942 | 151.17902 | 29 ft | 23 kts | 348° |
| 2026-04-22 04:51 | -33.94771 | 151.17858 | 29 ft | 26 kts | 348° |
| 2026-04-22 04:51 | -33.94595 | 151.17812 | 29 ft | 25 kts | 347° |
| 2026-04-22 04:52 | -33.94432 | 151.17765 | 29 ft | 23 kts | 346° |
| 2026-04-22 04:52 | -33.94278 | 151.17718 | 29 ft | 22 kts | 346° |
| 2026-04-22 04:52 | -33.94128 | 151.17672 | 28 ft | 22 kts | 346° |
| 2026-04-22 04:52 | -33.93987 | 151.17634 | 28 ft | 19 kts | 347° |
| 2026-04-22 04:53 | -33.93858 | 151.17600 | 28 ft | 19 kts | 348° |
| 2026-04-22 04:53 | -33.93734 | 151.17568 | 28 ft | 18 kts | 348° |
| 2026-04-22 04:53 | -33.93615 | 151.17537 | 28 ft | 17 kts | 348° |
| 2026-04-22 04:53 | -33.93499 | 151.17507 | 29 ft | 17 kts | 347° |
| 2026-04-22 04:54 | -33.93385 | 151.17505 | 29 ft | 16 kts | 351° |
| 2026-04-22 04:54 | -33.93279 | 151.17477 | 29 ft | 15 kts | 348° |
| 2026-04-22 04:54 | -33.93175 | 151.17451 | 29 ft | 15 kts | 348° |
| 2026-04-22 04:54 | -33.93076 | 151.17425 | 29 ft | 14 kts | 348° |
| 2026-04-22 04:55 | -33.93003 | 151.17415 | 30 ft | 10 kts | 27° |
| 2026-04-22 04:55 | -33.92989 | 151.17492 | 29 ft | 10 kts | 100° |
| 2026-04-22 04:55 | -33.93002 | 151.17570 | 29 ft | 10 kts | 101° |
| 2026-04-22 04:55 | -33.93015 | 151.17649 | 29 ft | 9 kts | 101° |
| 2026-04-22 04:56 | -33.93039 | 151.17720 | 29 ft | 9 kts | 119° |
| 2026-04-22 04:56 | -33.93060 | 151.17789 | 29 ft | 9 kts | 99° |
| 2026-04-22 04:56 | -33.93070 | 151.17855 | 29 ft | 6 kts | 100° |
| 2026-04-22 04:56 | -33.93103 | 151.17869 | 29 ft | 6 kts | 195° |
| 2026-04-22 04:57 | -33.93138 | 151.17859 | 29 ft | 5 kts | 191° |
| 2026-04-22 04:57 | -33.93146 | 151.17857 | 29 ft | 0 kts | 191° |